ADDS METAR Data INFO
IDs: Format: Raw Decoded Include TAF

Data at: 0210 UTC 19 Jul 2018

KEBG 190155Z AUTO 14006KT 10SM CLR 31/19 A2990 RMK AO2 T03080188
KEBG 190135Z AUTO 14007G16KT 10SM CLR 32/18 A2990 RMK AO2 T03190177
KEBG 190115Z AUTO 14012KT 10SM CLR 33/17 A2989 RMK AO2 T03270167
KEBG 190055Z AUTO 14011G16KT 10SM CLR 34/17 A2989 RMK AO2 T03350165
KEBG 190035Z AUTO 14012G15KT 10SM CLR 34/17 A2988 RMK AO2 T03420167
KEBG 190015Z AUTO 13014G18KT 10SM CLR 35/18 A2988 RMK AO2 T03500175
KEBG 182355Z AUTO 13016G19KT 10SM CLR 36/18 A2987 RMK AO2 T03570177 10389 20357
KEBG 182335Z AUTO 14016G21KT 10SM CLR 37/18 A2987 RMK AO2 T03650179
KEBG 182315Z AUTO 13013G21KT 10SM CLR 37/17 A2987 RMK AO2 T03710172
KEBG 182255Z AUTO 13013KT 10SM CLR 38/16 A2987 RMK AO2 T03770164
KEBG 182235Z AUTO 13014G18KT 10SM CLR 38/17 A2988 RMK AO2 T03800166
KEBG 182215Z AUTO 15013G16KT 10SM CLR 38/17 A2988 RMK AO2 T03810168
KEBG 182155Z AUTO 16010G15KT 10SM CLR 39/17 A2989 RMK AO2 T03850169
KEBG 182135Z AUTO 12010KT 10SM CLR 38/17 A2989 RMK AO2 T03840173
KEBG 182115Z AUTO 13010G16KT 10SM CLR 39/18 A2990 RMK AO2 T03850178
KEBG 182055Z AUTO 13012G16KT 10SM CLR 39/18 A2990 RMK AO2 T03860180
KEBG 182035Z AUTO 15012G19KT 10SM CLR 38/18 A2990 RMK AO2 T03840180
KEBG 182015Z AUTO 14009G19KT 10SM CLR 39/18 A2991 RMK AO2 T03860176
KEBG 181955Z AUTO 16011G18KT 10SM CLR 39/16 A2993 RMK AO2 T03890155
KEBG 181935Z AUTO 18009G19KT 10SM CLR 39/15 A2993 RMK AO2 T03860150
KEBG 181915Z AUTO 18011G17KT 10SM CLR 38/15 A2994 RMK AO2 T03810153
KEBG 181855Z AUTO 18012G16KT 10SM CLR 38/15 A2994 RMK AO2 T03800154
KEBG 181835Z AUTO 16010G18KT 10SM CLR 38/15 A2995 RMK AO2 T03780149
KEBG 181815Z AUTO 14011KT 10SM CLR 37/16 A2996 RMK AO2 T03740162
KEBG 181755Z AUTO 15010G16KT 10SM CLR 37/18 A2997 RMK AO2 T03690184 10369 20252
KEBG 181735Z AUTO 18011G18KT 10SM CLR 36/18 A2998 RMK AO2 T03620176
KEBG 181715Z AUTO 17012G15KT 10SM CLR 36/19 A2999 RMK AO2 T03560190
KEBG 181655Z AUTO 17012G19KT 10SM CLR 35/20 A2999 RMK AO2 T03480196
KEBG 181635Z AUTO 17012KT 10SM CLR 34/20 A2999 RMK AO2 T03430203
KEBG 181615Z AUTO 17013G19KT 10SM CLR 34/20 A3000 RMK AO2 T03370201
KEBG 181555Z AUTO 17014G19KT 10SM CLR 33/21 A3000 RMK AO2 T03330207
KEBG 181535Z AUTO 18013G17KT 10SM CLR 33/21 A3000 RMK AO2 T03260213
KEBG 181515Z AUTO 17012KT 10SM CLR 32/22 A3001 RMK AO2 T03220218
KEBG 181455Z AUTO 17013KT 10SM CLR 32/22 A3001 RMK AO2 T03150223
KEBG 181435Z AUTO 17010KT 10SM CLR 31/23 A3002 RMK AO2 T03070225
KEBG 181415Z AUTO 15009KT 10SM CLR 30/24 A3003 RMK AO2 T03000235
KEBG 181355Z AUTO 15009KT 10SM CLR 29/24 A3003 RMK AO2 T02910237
KEBG 181335Z AUTO 15007KT 10SM CLR 28/24 A3002 RMK AO2 T02830243
KEBG 181315Z AUTO 15007KT 7SM CLR 27/25 A3002 RMK AO2 T02710247
KEBG 181255Z AUTO 14007KT 7SM CLR 27/25 A3002 RMK AO2 T02650246
KEBG 181235Z AUTO 14005KT 7SM CLR 26/24 A3002 RMK AO2 T02600242
KEBG 181215Z AUTO 13005KT 5SM BR CLR 26/24 A3001 RMK AO2 T02550240
KEBG 181155Z AUTO 13006KT 5SM BR CLR 25/24 A3001 RMK AO2 T02520235 10280 20251
KEBG 181135Z AUTO 12004KT 5SM BR CLR 25/24 A3001 RMK AO2 T02530236
KEBG 181115Z AUTO 11004KT 7SM CLR 25/23 A3001 RMK AO2 T02510234
KEBG 181055Z AUTO 09005KT 7SM SCT015 26/24 A3001 RMK AO2 T02550236
KEBG 181035Z AUTO 08005KT 7SM SCT015 26/24 A3000 RMK AO2 T02550235
KEBG 181015Z AUTO 00000KT 7SM SCT019 26/24 A3000 RMK AO2 T02570237
KEBG 180955Z AUTO 13004KT 7SM SCT018 26/24 A3000 RMK AO2 T02580236
KEBG 180935Z AUTO 12003KT 10SM BKN018 26/24 A3000 RMK AO2 T02620239
KEBG 180915Z AUTO 14005KT 10SM SCT018 27/24 A3000 RMK AO2 T02650240
KEBG 180855Z AUTO 14006KT 10SM SCT018 27/24 A3000 RMK AO2 T02670240
KEBG 180835Z AUTO 15005KT 10SM SCT016 27/24 A3001 RMK AO2 T02680240
KEBG 180815Z AUTO 16005KT 10SM BKN6 6 N016 27/24 A3001 RMK AO2 T02700240
KEBG 180755Z AUTO 16005KT 10SM SCT016 27/24 A3001 RMK AO2 T02700240
KEBG 180735Z AUTO 16006KT 10SM CLR 27/24 A3001 RMK AO2 T02710240
KEBG 180715Z AUTO 16005KT 10SM CLR 27/24 A3002 RMK AO2 T02710239
KEBG 180655Z AUTO 16006KT 10SM CLR 27/24 A3002 RMK AO2 T02720240
KEBG 180635Z AUTO 16005KT 10SM CLR 28/24 A3002 RMK AO2 T02750240
KEBG 180615Z AUTO 16007KT 10SM SCT017 28/24 A3002 RMK AO2 T02760240
KEBG 180555Z AUTO 16007KT 10SM BKN017 28/24 A3003 RMK AO2 T02800240 10355 20279 403800238
KEBG 180535Z AUTO 15006KT 10SM SCT017 28/24 A3004 RMK AO2 T02800240
KEBG 180515Z AUTO 15007KT 10SM SCT017 28/24 A3003 RMK AO2 T02810240
KEBG 180455Z AUTO 15006KT 10SM SCT017 28/24 A3003 RMK AO2 T02830238
KEBG 180435Z AUTO 16008KT 10SM CLR 29/24 A3002 RMK AO2 T02850236
KEBG 180415Z AUTO 15007KT 10SM CLR 29/24 A3002 RMK AO2 T02850235
KEBG 180355Z AUTO 15009KT 10SM CLR 29/23 A3001 RMK AO2 T02870233
KEBG 180335Z AUTO 15010KT 10SM CLR 30/23 A3001 RMK AO2 T02950232
KEBG 180315Z AUTO 14008KT 10SM CLR 29/23 A3001 RMK AO2 T02940230
KEBG 180255Z AUTO 14005KT 10SM CLR 30/23 A2999 RMK AO2 T02980227
KEBG 180235Z AUTO 14007KT 10SM CLR 30/23 A2999 RMK AO2 T03030225
KEBG 180215Z AUTO 15007KT 10SM CLR 31/22 A2999 RMK AO2 T03100220
KEBG 180155Z AUTO 14008KT 10SM CLR 32/22 A2999 RMK AO2 T03150216
KEBG 180135Z AUTO 14009G14KT 10SM CLR 32/21 A2999 RMK AO2 T03220210
KEBG 180115Z AUTO 14012KT 10SM CLR 33/21 A2998 RMK AO2 T03300205
KEBG 180055Z AUTO 14009KT 10SM CLR 34/20 A2998 RMK AO2 T03360195
KEBG 180035Z AUTO 15012G16KT 10SM CLR 34/20 A2998 RMK AO2 T03420196
KEBG 180015Z AUTO 15012G17KT 10SM CLR 35/19 A2997 RMK AO2 T03470189
KEBG 172355Z AUTO 15009G15KT 10SM CLR 36/18 A2997 RMK AO2 T03550182 10380 20355
KEBG 172335Z AUTO 16011G16KT 10SM CLR 36/18 A2997 RMK AO2 T03590179
KEBG 172315Z AUTO 14013KT 10SM CLR 36/19 A2997 RMK AO2 T03640186
KEBG 172255Z AUTO 13012G18KT 10SM CLR 37/19 A2997 RMK AO2 T03650189
KEBG 172235Z AUTO 13012G17KT 10SM SCT060 37/19 A2997 RMK AO2 T03670187
KEBG 172215Z AUTO 14013G20KT 10SM SCT060 37/19 A2997 RMK AO2 T03700191
KEBG 172155Z AUTO 13011G16KT 10SM CLR 37/19 A2998 RMK AO2 T03710187
KEBG 172135Z AUTO 13009G16KT 10SM SCT060 38/18 A2998 RMK AO2 T03750184
KEBG 172115Z AUTO 12012KT 10SM SCT060 38/18 A2998 RMK AO2 T03790183
KEBG 172055Z AUTO 16009G14KT 10SM SCT060 38/19 A2999 RMK AO2 T03780188
KEBG 172035Z AUTO 16011G15KT 10SM BKN055 BKN070 37/19 A2999 RMK AO2 T03740185
KEBG 172015Z AUTO 14010KT 10SM BKN055 BKN070 37/19 A3000 RMK AO2 T03740190
KEBG 171955Z AUTO 17010G17KT 10SM SCT055 37/18 A3000 RMK AO2 T03680180
KEBG 171935Z AUTO 17007G16KT 10SM CLR 37/19 A3000 RMK AO2 T03720190
KEBG 171915Z AUTO 18009G16KT 10SM SCT055 37/19 A3001 RMK AO2 T03710189
KEBG 171855Z AUTO 16008KT 10SM SCT055 37/19 A3002 RMK AO2 T03700192
KEBG 171835Z AUTO 15010G16KT 10SM SCT050 37/20 A3002 RMK AO2 T03650196
KEBG 171815Z AUTO 19010G16KT 10SM SCT048 37/21 A3003 RMK AO2 T03650205
KEBG 171755Z AUTO 14011G16KT 10SM SCT044 36/21 A3003 RMK AO2 T03580208 10358 20240
KEBG 171735Z AUTO 15008G16KT 10SM CLR 35/22 A3004 RMK AO2 T03530215
KEBG 171715Z AUTO 17012G15KT 10SM SCT039 35/22 A3004 RMK AO2 T03480217
KEBG 171655Z AUTO 15008KT 10SM CLR 35/22 A3004 RMK AO2 T03450218
KEBG 171635Z AUTO 16013G18KT 10SM CLR 34/22 A3004 RMK AO2 T03400221
KEBG 171615Z AUTO 16010G16KT 10SM SCT031 33/22 A3004 RMK AO2 T03320224
KEBG 171555Z AUTO 15009KT 10SM CLR 32/23 A3005 RMK AO2 T03240230
KEBG 171535Z AUTO 17010KT 10SM SCT021 32/24 A3005 RMK AO2 T03170235
KEBG 171515Z AUTO 16008KT 10SM SCT019 31/24 A3005 RMK AO2 T03110237
KEBG 171455Z AUTO 14012KT 10SM SCT017 31/24 A3005 RMK AO2 T03050240
KEBG 171435Z AUTO 16008G15KT 10SM SCT013 SCT018 29/24 A3006 RMK AO2 T02940244
KEBG 171415Z AUTO 15008KT 10SM BKN011 BKN016 28/25 A3006 RMK AO2 T02830250